Lancaster Airport
KLNS : rendu visible

Aérodrome :











RETROUVEZ-NOUS SUR...

 
LOGIN :

S'inscrire | Disclaimer

   EN    FR    IT 

 









Légende :    VFR   VFR Marginal   IFR   IFR Intensif   IFR Très Intensif
Visi : 
Plafond : 
>= 8 km
>= 3000ft
5 à 8 km
1000 à 3000 ft
1500m à 5 km
500 à 1000 ft
800 à 1500m
200 à 500 ft
< 800m
< 200 ft
Symboles :   Orages  Brouillard  Fortes neiges  Fortes précipitations  Vent > 20 kt






- Altitude de l'aérodrome : 403 ft
- Code IATA : LNS


KLNS - Lancaster

DERNIER METAR :
  • 100653Z AUTO 22003KT 10SM OVC010 12/09 A2974 RMK AO2 SLP072 T01170094

METARs EXPIRÉS :
  • 100553Z AUTO 21003KT 10SM OVC011 11/09 A2974 RMK AO2 SLP070 60003 T01110089 10117 20100 57008
  • 100453Z AUTO 22007KT 10SM OVC011 11/09 A2975 RMK AO2 SLP074 T01110089 401110017

TAF KLNS
Valide du 10 à 06h jusqu'au 11 à 06h UTC


100600Z 1006/1106 21005KT P6SM OVC011 WS015/24040KT
FM100700 21008KT P6SM SCT025 OVC200 WS015/24040KT
FM101200 23004KT P6SM VCSH OVC035
FM101600 24006KT 5SM -RA OVC025
FM102000 29010KT P6SM BKN035 OVC090



MET'MAP, la Météo Aéronautique d'un coup d'oeil ! - Copyright ORBIFLY Décembre 2007 - Disclaimer

ORBIFLY MET'MAP TEAM :

Programmation & Développement : Alexandra Zaïnal
Sur une idée originale de : Baudouin d'Aumeries
Assistance à la programmation : Marc-Olivier Méhu
Soutien technique & logistique : Manuel Goepfert

Contact : metmap@orbifly.com




SOURCES & CREDITS :

   NOAA       Earth
Advisory